createdAt,value
2022-08-22T00:06:16.582Z,18.68
2022-08-22T00:16:59.325Z,18.85
2022-08-22T00:27:34.575Z,18.78
2022-08-22T00:38:09.233Z,18.65
2022-08-22T00:49:10.407Z,18.48
2022-08-22T01:00:04.692Z,18.59
2022-08-22T01:10:55.953Z,18.68
2022-08-22T01:22:10.188Z,18.58
2022-08-22T01:33:09.898Z,18.43
2022-08-22T01:44:00.900Z,18.49
2022-08-22T01:54:49.989Z,18.40
2022-08-22T02:05:32.201Z,18.37
2022-08-22T02:16:12.560Z,18.42
2022-08-22T02:26:51.866Z,18.26
2022-08-22T02:37:31.487Z,18.20
2022-08-22T02:48:06.912Z,18.21
2022-08-22T02:58:53.865Z,18.27
2022-08-22T03:09:32.996Z,18.38
2022-08-22T03:20:11.225Z,18.39
2022-08-22T03:30:46.181Z,18.50
2022-08-22T03:41:41.532Z,18.48
2022-08-22T03:52:34.557Z,18.39
2022-08-22T04:03:33.168Z,18.32
2022-08-22T04:14:23.239Z,18.33
2022-08-22T04:25:04.686Z,18.36
2022-08-22T04:35:43.081Z,18.38
2022-08-22T04:46:17.927Z,18.53
2022-08-22T04:57:04.323Z,18.55
2022-08-22T05:07:39.287Z,18.56
2022-08-22T05:18:11.732Z,18.70
2022-08-22T05:28:44.171Z,18.88
2022-08-22T05:39:17.897Z,18.97
2022-08-22T05:49:55.939Z,19.06
2022-08-22T06:00:27.936Z,19.09
2022-08-22T06:11:01.572Z,18.91
2022-08-22T06:21:37.167Z,18.78
2022-08-22T06:32:15.734Z,18.79
2022-08-22T06:42:48.290Z,18.72
2022-08-22T06:53:20.518Z,18.68
2022-08-22T07:03:53.043Z,18.67
2022-08-22T07:14:30.006Z,18.61
2022-08-22T07:25:03.190Z,18.53
2022-08-22T07:35:37.047Z,18.56
2022-08-22T07:46:18.521Z,18.67
2022-08-22T07:56:55.341Z,18.73
2022-08-22T08:07:28.526Z,18.70
2022-08-22T08:18:02.574Z,18.72
2022-08-22T08:28:38.457Z,18.70
2022-08-22T08:39:17.502Z,18.55
2022-08-22T08:49:59.272Z,18.45
2022-08-22T09:00:46.019Z,18.32
2022-08-22T09:12:01.084Z,18.28
2022-08-22T09:22:51.034Z,18.23
2022-08-22T09:33:24.781Z,18.23
2022-08-22T09:44:04.841Z,18.24
2022-08-22T09:54:42.745Z,18.25
2022-08-22T10:05:35.256Z,18.32
2022-08-22T10:16:21.869Z,18.37
2022-08-22T10:26:54.849Z,18.35
2022-08-22T10:37:31.491Z,18.40
2022-08-22T10:48:36.255Z,18.49
2022-08-22T10:59:14.235Z,18.49
2022-08-22T11:09:51.511Z,18.54
2022-08-22T11:20:34.371Z,18.68
2022-08-22T11:31:11.212Z,18.72
2022-08-22T11:41:48.399Z,18.77
2022-08-22T11:52:54.618Z,18.92
2022-08-22T12:03:36.438Z,19.03
2022-08-22T12:14:17.566Z,19.14
2022-08-22T12:25:05.205Z,19.26
2022-08-22T12:35:43.683Z,19.37
2022-08-22T12:46:19.626Z,19.53
2022-08-22T12:56:59.589Z,19.63
2022-08-22T13:07:31.922Z,19.70
2022-08-22T13:18:25.121Z,19.76
2022-08-22T13:29:24.133Z,19.76
2022-08-22T13:39:50.163Z,19.73
2022-08-22T13:50:24.796Z,19.72
2022-08-22T14:01:20.444Z,19.75
2022-08-22T14:12:02.375Z,19.80
2022-08-22T14:22:35.137Z,19.80
2022-08-22T14:33:13.654Z,19.76
2022-08-22T14:43:54.575Z,19.70
2022-08-22T14:54:28.994Z,19.64
2022-08-22T15:05:01.947Z,19.61
2022-08-22T15:15:49.805Z,19.53
2022-08-22T15:26:28.578Z,19.47
2022-08-22T15:37:29.984Z,19.51
2022-08-22T15:48:04.444Z,19.43
2022-08-22T15:58:37.509Z,19.38
2022-08-22T16:09:07.387Z,19.35
2022-08-22T16:19:38.574Z,19.29
2022-08-22T16:30:16.850Z,19.25
2022-08-22T16:40:50.724Z,19.20
2022-08-22T16:51:22.365Z,19.18
2022-08-22T17:02:15.966Z,19.17
2022-08-22T17:12:56.400Z,19.21
2022-08-22T17:23:40.690Z,19.28
2022-08-22T17:34:30.286Z,19.39
2022-08-22T17:45:12.846Z,19.41
2022-08-22T17:56:00.268Z,19.46
2022-08-22T18:06:32.432Z,19.52
2022-08-22T18:17:02.484Z,19.70
2022-08-22T18:27:38.587Z,19.84
2022-08-22T18:38:19.793Z,19.85
2022-08-22T18:49:12.060Z,19.83
2022-08-22T18:59:59.921Z,19.92
2022-08-22T19:10:55.753Z,20.08
2022-08-22T19:21:46.474Z,20.15
2022-08-22T19:32:52.327Z,20.12
2022-08-22T19:43:38.850Z,20.08
2022-08-22T19:54:25.363Z,20.09
2022-08-22T20:05:13.086Z,20.21
2022-08-22T20:16:06.880Z,20.31
2022-08-22T20:26:51.960Z,20.40
2022-08-22T20:38:03.370Z,20.45
2022-08-22T20:48:19.708Z,20.41
2022-08-22T20:58:49.344Z,20.11
2022-08-22T21:09:39.804Z,19.12
2022-08-22T21:20:23.587Z,18.61
2022-08-22T21:30:53.073Z,18.62
2022-08-22T21:41:30.982Z,18.73
2022-08-22T21:51:59.989Z,18.95
2022-08-22T22:02:38.237Z,19.20
2022-08-22T22:13:09.309Z,19.09
2022-08-22T22:23:38.111Z,19.17
2022-08-22T22:34:07.154Z,19.24
2022-08-22T22:44:36.037Z,19.26
2022-08-22T22:55:05.477Z,19.14
2022-08-22T23:05:35.422Z,19.02
2022-08-22T23:16:10.068Z,18.97
2022-08-22T23:26:39.756Z,18.93
2022-08-22T23:37:09.676Z,18.68
2022-08-22T23:47:38.499Z,18.69
2022-08-22T23:58:07.959Z,18.96
